createdAt,value
2018-02-25T00:01:04.726Z,1.93
2018-02-25T00:06:08.147Z,2.10
2018-02-25T00:11:11.459Z,1.70
2018-02-25T00:16:14.160Z,2.37
2018-02-25T00:21:16.891Z,2.10
2018-02-25T00:26:19.644Z,2.00
2018-02-25T00:31:22.191Z,1.90
2018-02-25T00:36:24.814Z,1.80
2018-02-25T00:41:27.380Z,2.20
2018-02-25T00:46:29.920Z,1.70
2018-02-25T00:51:33.229Z,1.90
2018-02-25T00:56:36.760Z,1.93
2018-02-25T01:01:39.289Z,1.80
2018-02-25T01:06:41.853Z,2.10
2018-02-25T01:11:44.457Z,1.63
2018-02-25T01:16:47.092Z,2.00
2018-02-25T01:21:49.727Z,1.80
2018-02-25T01:26:52.292Z,1.70
2018-02-25T01:31:54.810Z,2.10
2018-02-25T01:36:57.724Z,1.77
2018-02-25T01:42:00.612Z,2.20
2018-02-25T01:47:03.931Z,1.70
2018-02-25T01:52:06.532Z,1.90
2018-02-25T01:57:09.846Z,1.93
2018-02-25T02:02:12.392Z,1.63
2018-02-25T02:07:15.227Z,2.23
2018-02-25T02:12:18.763Z,1.80
2018-02-25T02:17:21.332Z,2.00
2018-02-25T02:22:24.118Z,2.20
2018-02-25T02:27:26.705Z,1.60
2018-02-25T02:32:29.390Z,1.80
2018-02-25T02:37:31.945Z,1.80
2018-02-25T02:42:34.545Z,1.70
2018-02-25T02:47:37.087Z,1.67
2018-02-25T02:52:40.268Z,1.90
2018-02-25T02:57:42.981Z,1.97
2018-02-25T03:02:45.512Z,1.80
2018-02-25T03:07:49.130Z,1.60
2018-02-25T03:12:51.906Z,1.67
2018-02-25T03:17:55.183Z,1.80
2018-02-25T03:22:57.746Z,1.90
2018-02-25T03:28:00.305Z,1.70
2018-02-25T03:33:02.919Z,1.57
2018-02-25T03:38:06.337Z,1.80
2018-02-25T03:43:09.177Z,1.90
2018-02-25T03:48:11.871Z,1.70
2018-02-25T03:53:14.439Z,1.97
2018-02-25T03:58:17.779Z,2.10
2018-02-25T04:03:20.315Z,1.70
2018-02-25T04:08:23.649Z,1.70
2018-02-25T04:13:26.210Z,1.57
2018-02-25T04:18:28.916Z,1.90
2018-02-25T04:23:31.628Z,1.80
2018-02-25T04:28:34.210Z,1.83
2018-02-25T04:33:37.030Z,1.67
2018-02-25T04:38:39.848Z,1.80
2018-02-25T04:43:42.428Z,1.80
2018-02-25T04:48:45.837Z,2.13
2018-02-25T04:53:50.550Z,1.83
2018-02-25T04:58:53.994Z,1.90
2018-02-25T05:03:57.962Z,1.60
2018-02-25T05:09:00.518Z,1.70
2018-02-25T05:14:03.908Z,1.87
2018-02-25T05:19:07.257Z,1.70
2018-02-25T05:24:09.999Z,1.60
2018-02-25T05:29:12.548Z,1.80
2018-02-25T05:34:15.120Z,1.93
2018-02-25T05:39:17.650Z,1.90
2018-02-25T05:44:20.229Z,2.10
2018-02-25T05:49:22.918Z,1.90
2018-02-25T05:54:25.706Z,1.60
2018-02-25T05:59:28.612Z,1.80
2018-02-25T06:04:31.338Z,1.60
2018-02-25T06:09:34.092Z,1.67
2018-02-25T06:14:36.710Z,1.67
2018-02-25T06:19:40.143Z,2.00
2018-02-25T06:24:42.717Z,1.67
2018-02-25T06:29:46.032Z,1.70
2018-02-25T06:34:48.584Z,1.80
2018-02-25T06:39:51.281Z,1.90
2018-02-25T06:44:54.057Z,1.57
2018-02-25T06:49:57.077Z,2.13
2018-02-25T06:55:00.112Z,1.87
2018-02-25T07:00:03.334Z,1.73
2018-02-25T07:05:05.864Z,1.90
2018-02-25T07:10:08.476Z,2.17
2018-02-25T07:15:11.256Z,2.07
2018-02-25T07:20:13.811Z,2.17
2018-02-25T07:25:16.572Z,1.50
2018-02-25T07:30:19.168Z,1.57
2018-02-25T07:35:22.023Z,1.57
2018-02-25T07:40:24.646Z,1.90
2018-02-25T07:45:27.226Z,1.90
2018-02-25T07:50:30.607Z,1.47
2018-02-25T07:55:33.272Z,2.00
2018-02-25T08:00:36.162Z,1.90
2018-02-25T08:05:38.904Z,1.70
2018-02-25T08:10:42.598Z,1.87
2018-02-25T08:15:45.901Z,1.60
2018-02-25T08:20:48.490Z,1.70
2018-02-25T08:25:51.097Z,1.90
2018-02-25T08:30:53.858Z,1.50
2018-02-25T08:35:56.413Z,1.80
2018-02-25T08:40:59.877Z,1.73
2018-02-25T08:46:02.449Z,1.70
2018-02-25T08:51:05.767Z,1.63
2018-02-25T08:56:08.320Z,1.90
2018-02-25T09:01:12.186Z,1.70
2018-02-25T09:06:14.848Z,1.40
2018-02-25T09:11:18.784Z,2.00
2018-02-25T09:16:22.119Z,1.73
2018-02-25T09:21:24.748Z,1.93
2018-02-25T09:26:28.144Z,1.90
2018-02-25T09:31:30.927Z,1.70
2018-02-25T09:36:33.609Z,2.10
2018-02-25T09:41:36.209Z,2.00
2018-02-25T09:46:38.940Z,2.07
2018-02-25T09:51:42.236Z,1.90
2018-02-25T09:56:44.851Z,1.87
2018-02-25T10:01:47.403Z,1.77
2018-02-25T10:06:49.969Z,1.87
2018-02-25T10:11:52.688Z,1.70
2018-02-25T10:16:55.226Z,1.90
2018-02-25T10:21:58.040Z,1.67
2018-02-25T10:27:00.572Z,1.97
2018-02-25T10:32:03.142Z,2.30
2018-02-25T10:37:05.678Z,1.93
2018-02-25T10:42:08.241Z,1.47
2018-02-25T10:47:10.923Z,1.73
2018-02-25T10:52:13.542Z,2.20
2018-02-25T10:57:16.093Z,1.90
2018-02-25T11:02:18.851Z,1.90
2018-02-25T11:07:21.948Z,1.93
2018-02-25T11:12:24.550Z,1.87
2018-02-25T11:17:27.724Z,2.50
2018-02-25T11:22:30.272Z,2.13
2018-02-25T11:27:32.892Z,2.27
2018-02-25T11:32:35.654Z,1.77
2018-02-25T11:37:38.203Z,2.30
2018-02-25T11:42:40.804Z,2.20
2018-02-25T11:47:43.379Z,2.23
2018-02-25T11:52:45.904Z,2.07
2018-02-25T11:57:49.381Z,1.57
2018-02-25T12:02:52.765Z,2.13
2018-02-25T12:07:55.413Z,2.23
2018-02-25T12:12:57.911Z,2.27
2018-02-25T12:18:00.455Z,2.40
2018-02-25T12:23:03.936Z,2.20
2018-02-25T12:28:07.300Z,2.53
2018-02-25T12:33:10.365Z,2.30
2018-02-25T12:38:12.940Z,2.20
2018-02-25T12:43:15.614Z,2.00
2018-02-25T12:48:18.169Z,2.20
2018-02-25T12:53:20.829Z,2.00
2018-02-25T12:58:23.423Z,2.40
2018-02-25T13:03:26.020Z,2.27
2018-02-25T13:08:28.493Z,2.10
2018-02-25T13:13:32.555Z,2.67
2018-02-25T13:18:35.446Z,2.60
2018-02-25T13:23:38.074Z,2.37
2018-02-25T13:28:40.710Z,2.53
2018-02-25T13:33:43.288Z,2.30
2018-02-25T13:38:45.900Z,2.53
2018-02-25T13:43:49.036Z,2.27
2018-02-25T13:48:51.758Z,2.43
2018-02-25T13:53:54.977Z,2.80
2018-02-25T13:58:57.499Z,2.57
2018-02-25T14:04:00.407Z,2.43
2018-02-25T14:09:03.573Z,2.47
2018-02-25T14:14:06.522Z,3.00
2018-02-25T14:19:09.072Z,3.03
2018-02-25T14:24:11.640Z,2.40
2018-02-25T14:29:14.225Z,2.77
2018-02-25T14:34:17.504Z,2.87
2018-02-25T14:39:20.082Z,2.80
2018-02-25T14:44:22.618Z,2.50
2018-02-25T14:49:25.368Z,2.83
2018-02-25T14:54:28.720Z,2.30
2018-02-25T14:59:31.316Z,2.93
2018-02-25T15:04:35.148Z,2.47
2018-02-25T15:09:38.480Z,2.90
2018-02-25T15:14:41.982Z,2.83
2018-02-25T15:19:45.290Z,3.23
2018-02-25T15:24:48.724Z,3.30
2018-02-25T15:29:51.378Z,2.90
2018-02-25T15:34:54.377Z,3.10
2018-02-25T15:39:58.126Z,3.07
2018-02-25T15:45:00.816Z,2.80
2018-02-25T15:50:03.464Z,2.97
2018-02-25T15:55:06.055Z,2.60
2018-02-25T16:00:08.644Z,3.40
2018-02-25T16:05:11.217Z,2.80
2018-02-25T16:10:14.016Z,2.70
2018-02-25T16:15:17.455Z,2.90
2018-02-25T16:20:20.066Z,2.77
2018-02-25T16:25:22.916Z,2.90
2018-02-25T16:30:25.472Z,3.20
2018-02-25T16:35:33.139Z,2.87
2018-02-25T16:40:36.061Z,3.03
2018-02-25T16:45:38.735Z,2.70
2018-02-25T16:50:42.003Z,2.83
2018-02-25T16:55:44.935Z,2.80
2018-02-25T17:00:48.254Z,2.97
2018-02-25T17:05:51.289Z,3.10
2018-02-25T17:10:53.943Z,2.80
2018-02-25T17:15:56.646Z,3.10
2018-02-25T17:20:59.981Z,3.17
2018-02-25T17:26:03.272Z,2.77
2018-02-25T17:31:07.127Z,2.87
2018-02-25T17:36:09.920Z,3.03
2018-02-25T17:41:12.582Z,2.77
2018-02-25T17:46:15.211Z,3.10
2018-02-25T17:51:18.330Z,2.60
2018-02-25T17:56:20.884Z,2.93
2018-02-25T18:01:24.305Z,3.20
2018-02-25T18:06:26.878Z,2.70
2018-02-25T18:11:29.748Z,2.90
2018-02-25T18:16:32.337Z,3.10
2018-02-25T18:21:34.951Z,2.90
2018-02-25T18:26:37.794Z,2.87
2018-02-25T18:31:40.891Z,2.90
2018-02-25T18:36:44.221Z,3.17
2018-02-25T18:41:46.769Z,3.20
2018-02-25T18:46:49.401Z,2.70
2018-02-25T18:51:52.737Z,3.20
2018-02-25T18:56:56.090Z,3.30
2018-02-25T19:01:58.849Z,2.80
2018-02-25T19:07:01.412Z,3.30
2018-02-25T19:12:03.979Z,3.20
2018-02-25T19:17:07.281Z,3.23
2018-02-25T19:22:09.849Z,2.83
2018-02-25T19:27:12.615Z,2.93
2018-02-25T19:32:15.953Z,3.10
2018-02-25T19:37:25.208Z,3.17
2018-02-25T19:42:28.453Z,3.60
2018-02-25T19:47:31.075Z,3.17
2018-02-25T19:52:34.570Z,3.33
2018-02-25T19:57:37.192Z,3.20
2018-02-25T20:02:39.884Z,2.97
2018-02-25T20:07:42.444Z,3.10
2018-02-25T20:12:45.020Z,3.13
2018-02-25T20:17:47.997Z,2.93
2018-02-25T20:22:50.548Z,3.30
2018-02-25T20:27:53.210Z,2.90
2018-02-25T20:32:55.882Z,3.20
2018-02-25T20:37:58.555Z,3.47
2018-02-25T20:43:01.583Z,2.97
2018-02-25T20:48:04.419Z,3.10
2018-02-25T20:53:07.365Z,2.93
2018-02-25T20:58:10.105Z,3.60
2018-02-25T21:03:12.858Z,3.33
2018-02-25T21:08:15.402Z,3.50
2018-02-25T21:13:18.102Z,2.90
2018-02-25T21:18:20.707Z,2.80
2018-02-25T21:23:23.266Z,2.87
2018-02-25T21:28:25.792Z,3.00
2018-02-25T21:33:28.414Z,3.50
2018-02-25T21:38:30.952Z,3.50
2018-02-25T21:43:34.050Z,2.70
2018-02-25T21:48:37.456Z,2.70
2018-02-25T21:53:41.014Z,3.37
2018-02-25T21:58:49.180Z,3.23
2018-02-25T22:03:58.280Z,4.00
2018-02-25T22:09:00.905Z,3.93
2018-02-25T22:14:03.729Z,4.27
2018-02-25T22:19:06.270Z,3.67
2018-02-25T22:24:08.989Z,3.70
2018-02-25T22:29:11.525Z,3.50
2018-02-25T22:34:14.227Z,3.63
2018-02-25T22:39:16.853Z,3.73
2018-02-25T22:44:19.643Z,3.43
2018-02-25T22:49:22.195Z,3.80
2018-02-25T22:54:24.787Z,3.70
2018-02-25T22:59:28.219Z,3.50
2018-02-25T23:04:31.528Z,4.03
2018-02-25T23:09:34.114Z,4.03
2018-02-25T23:14:36.687Z,4.27
2018-02-25T23:19:39.234Z,3.70
2018-02-25T23:24:41.804Z,4.50
2018-02-25T23:29:45.099Z,4.17
2018-02-25T23:34:48.189Z,4.00
2018-02-25T23:39:51.514Z,3.90
2018-02-25T23:44:54.559Z,4.00
2018-02-25T23:49:57.075Z,3.83
2018-02-25T23:55:00.181Z,3.77
